sensor_id;sensor_type;location;lat;lon;timestamp;P1;durP1;ratioP1;P2;durP2;ratioP2
11763;SDS011;5939;56.522;14.950;2024-01-07T00:01:57;2.00;;;1.80;;
11763;SDS011;5939;56.522;14.950;2024-01-07T00:04:23;2.43;;;1.77;;
11763;SDS011;5939;56.522;14.950;2024-01-07T00:06:49;2.57;;;1.90;;
11763;SDS011;5939;56.522;14.950;2024-01-07T00:09:15;2.80;;;2.00;;
11763;SDS011;5939;56.522;14.950;2024-01-07T00:11:41;2.70;;;1.60;;
11763;SDS011;5939;56.522;14.950;2024-01-07T00:14:07;2.57;;;1.67;;
11763;SDS011;5939;56.522;14.950;2024-01-07T00:16:33;2.27;;;1.67;;
11763;SDS011;5939;56.522;14.950;2024-01-07T00:18:59;2.63;;;1.67;;
11763;SDS011;5939;56.522;14.950;2024-01-07T00:21:25;2.67;;;1.80;;
11763;SDS011;5939;56.522;14.950;2024-01-07T00:23:50;3.07;;;1.77;;
11763;SDS011;5939;56.522;14.950;2024-01-07T00:26:16;2.37;;;1.80;;
11763;SDS011;5939;56.522;14.950;2024-01-07T00:28:41;2.17;;;1.53;;
11763;SDS011;5939;56.522;14.950;2024-01-07T00:31:07;2.90;;;2.00;;
11763;SDS011;5939;56.522;14.950;2024-01-07T00:33:34;2.70;;;1.67;;
11763;SDS011;5939;56.522;14.950;2024-01-07T00:36:00;3.00;;;2.03;;
11763;SDS011;5939;56.522;14.950;2024-01-07T00:38:26;2.43;;;1.50;;
11763;SDS011;5939;56.522;14.950;2024-01-07T00:40:51;1.70;;;1.40;;
11763;SDS011;5939;56.522;14.950;2024-01-07T00:43:17;1.97;;;1.60;;
11763;SDS011;5939;56.522;14.950;2024-01-07T00:45:43;2.30;;;1.80;;
11763;SDS011;5939;56.522;14.950;2024-01-07T00:48:09;2.27;;;1.90;;
11763;SDS011;5939;56.522;14.950;2024-01-07T00:50:35;2.00;;;1.50;;
11763;SDS011;5939;56.522;14.950;2024-01-07T00:53:00;3.07;;;1.70;;
11763;SDS011;5939;56.522;14.950;2024-01-07T00:55:26;1.97;;;1.70;;
11763;SDS011;5939;56.522;14.950;2024-01-07T00:57:52;1.57;;;1.47;;
11763;SDS011;5939;56.522;14.950;2024-01-07T01:00:18;1.67;;;1.30;;
11763;SDS011;5939;56.522;14.950;2024-01-07T01:02:44;3.10;;;2.17;;
11763;SDS011;5939;56.522;14.950;2024-01-07T01:05:10;2.67;;;1.80;;
11763;SDS011;5939;56.522;14.950;2024-01-07T01:07:35;2.67;;;1.70;;
11763;SDS011;5939;56.522;14.950;2024-01-07T01:10:01;2.57;;;1.80;;
11763;SDS011;5939;56.522;14.950;2024-01-07T01:12:27;4.93;;;1.80;;
11763;SDS011;5939;56.522;14.950;2024-01-07T01:14:52;2.43;;;1.77;;
11763;SDS011;5939;56.522;14.950;2024-01-07T01:17:18;2.00;;;1.50;;
11763;SDS011;5939;56.522;14.950;2024-01-07T01:19:43;2.70;;;1.73;;
11763;SDS011;5939;56.522;14.950;2024-01-07T01:22:09;2.17;;;1.80;;
11763;SDS011;5939;56.522;14.950;2024-01-07T01:24:35;2.70;;;1.80;;
11763;SDS011;5939;56.522;14.950;2024-01-07T01:27:00;3.23;;;1.70;;
11763;SDS011;5939;56.522;14.950;2024-01-07T01:29:26;1.87;;;1.50;;
11763;SDS011;5939;56.522;14.950;2024-01-07T01:31:52;2.80;;;1.93;;
11763;SDS011;5939;56.522;14.950;2024-01-07T01:34:17;2.00;;;1.40;;
11763;SDS011;5939;56.522;14.950;2024-01-07T01:36:43;4.53;;;1.77;;
11763;SDS011;5939;56.522;14.950;2024-01-07T01:39:08;1.70;;;1.60;;
11763;SDS011;5939;56.522;14.950;2024-01-07T01:41:34;2.00;;;1.63;;
11763;SDS011;5939;56.522;14.950;2024-01-07T01:44:00;2.93;;;2.00;;
11763;SDS011;5939;56.522;14.950;2024-01-07T01:46:26;3.03;;;1.90;;
11763;SDS011;5939;56.522;14.950;2024-01-07T01:48:54;2.87;;;1.90;;
11763;SDS011;5939;56.522;14.950;2024-01-07T01:51:21;2.20;;;1.73;;
11763;SDS011;5939;56.522;14.950;2024-01-07T01:53:46;2.17;;;1.60;;
11763;SDS011;5939;56.522;14.950;2024-01-07T01:56:14;1.67;;;1.57;;
11763;SDS011;5939;56.522;14.950;2024-01-07T01:58:43;2.03;;;1.83;;
11763;SDS011;5939;56.522;14.950;2024-01-07T02:01:09;2.67;;;1.60;;
11763;SDS011;5939;56.522;14.950;2024-01-07T02:03:35;2.47;;;1.80;;
11763;SDS011;5939;56.522;14.950;2024-01-07T02:06:00;2.53;;;1.80;;
11763;SDS011;5939;56.522;14.950;2024-01-07T02:08:27;1.97;;;1.70;;
11763;SDS011;5939;56.522;14.950;2024-01-07T02:10:52;2.57;;;2.33;;
11763;SDS011;5939;56.522;14.950;2024-01-07T02:13:18;2.63;;;1.83;;
11763;SDS011;5939;56.522;14.950;2024-01-07T02:15:44;1.50;;;1.40;;
11763;SDS011;5939;56.522;14.950;2024-01-07T02:18:09;3.10;;;1.60;;
11763;SDS011;5939;56.522;14.950;2024-01-07T02:20:35;2.57;;;1.93;;
11763;SDS011;5939;56.522;14.950;2024-01-07T02:23:01;3.03;;;1.90;;
11763;SDS011;5939;56.522;14.950;2024-01-07T02:25:28;2.37;;;1.77;;
11763;SDS011;5939;56.522;14.950;2024-01-07T02:27:53;2.43;;;1.83;;
11763;SDS011;5939;56.522;14.950;2024-01-07T02:30:19;2.23;;;2.00;;
11763;SDS011;5939;56.522;14.950;2024-01-07T02:32:44;1.70;;;1.60;;
11763;SDS011;5939;56.522;14.950;2024-01-07T02:35:10;3.53;;;2.00;;
11763;SDS011;5939;56.522;14.950;2024-01-07T02:37:36;2.50;;;1.77;;
11763;SDS011;5939;56.522;14.950;2024-01-07T02:40:01;1.97;;;1.70;;
11763;SDS011;5939;56.522;14.950;2024-01-07T02:42:27;1.90;;;1.57;;
11763;SDS011;5939;56.522;14.950;2024-01-07T02:44:53;2.10;;;1.60;;
11763;SDS011;5939;56.522;14.950;2024-01-07T02:47:18;2.80;;;1.70;;
11763;SDS011;5939;56.522;14.950;2024-01-07T02:49:44;2.40;;;1.93;;
11763;SDS011;5939;56.522;14.950;2024-01-07T02:52:10;2.27;;;1.80;;
11763;SDS011;5939;56.522;14.950;2024-01-07T02:54:35;2.87;;;1.90;;
11763;SDS011;5939;56.522;14.950;2024-01-07T02:57:01;2.17;;;1.80;;
11763;SDS011;5939;56.522;14.950;2024-01-07T02:59:27;1.77;;;1.60;;
11763;SDS011;5939;56.522;14.950;2024-01-07T03:01:52;2.43;;;1.70;;
11763;SDS011;5939;56.522;14.950;2024-01-07T03:04:18;4.20;;;2.13;;
11763;SDS011;5939;56.522;14.950;2024-01-07T03:06:44;3.33;;;2.23;;
11763;SDS011;5939;56.522;14.950;2024-01-07T03:09:09;2.20;;;1.50;;
11763;SDS011;5939;56.522;14.950;2024-01-07T03:11:41;2.40;;;1.77;;
11763;SDS011;5939;56.522;14.950;2024-01-07T03:14:07;2.53;;;1.87;;
11763;SDS011;5939;56.522;14.950;2024-01-07T03:16:32;3.07;;;2.00;;
11763;SDS011;5939;56.522;14.950;2024-01-07T03:18:58;2.83;;;1.80;;
11763;SDS011;5939;56.522;14.950;2024-01-07T03:21:24;2.93;;;1.73;;
11763;SDS011;5939;56.522;14.950;2024-01-07T03:23:50;2.73;;;1.70;;
11763;SDS011;5939;56.522;14.950;2024-01-07T03:26:17;2.43;;;1.70;;
11763;SDS011;5939;56.522;14.950;2024-01-07T03:28:43;2.83;;;1.97;;
11763;SDS011;5939;56.522;14.950;2024-01-07T03:31:09;2.33;;;1.53;;
11763;SDS011;5939;56.522;14.950;2024-01-07T03:33:39;2.93;;;2.00;;
11763;SDS011;5939;56.522;14.950;2024-01-07T03:36:09;2.50;;;1.87;;
11763;SDS011;5939;56.522;14.950;2024-01-07T03:38:36;2.47;;;1.90;;
11763;SDS011;5939;56.522;14.950;2024-01-07T03:41:02;2.07;;;1.73;;
11763;SDS011;5939;56.522;14.950;2024-01-07T03:43:28;2.27;;;1.80;;
11763;SDS011;5939;56.522;14.950;2024-01-07T03:45:54;3.00;;;1.83;;
11763;SDS011;5939;56.522;14.950;2024-01-07T03:48:20;2.57;;;2.00;;
11763;SDS011;5939;56.522;14.950;2024-01-07T03:50:45;2.60;;;1.60;;
11763;SDS011;5939;56.522;14.950;2024-01-07T03:53:12;2.13;;;1.80;;
11763;SDS011;5939;56.522;14.950;2024-01-07T03:55:38;3.77;;;1.80;;
11763;SDS011;5939;56.522;14.950;2024-01-07T03:58:04;2.63;;;2.00;;
11763;SDS011;5939;56.522;14.950;2024-01-07T04:00:30;3.73;;;2.27;;
11763;SDS011;5939;56.522;14.950;2024-01-07T04:02:57;2.23;;;1.97;;
11763;SDS011;5939;56.522;14.950;2024-01-07T04:05:22;2.03;;;1.83;;
11763;SDS011;5939;56.522;14.950;2024-01-07T04:07:48;2.03;;;1.80;;
11763;SDS011;5939;56.522;14.950;2024-01-07T04:10:15;2.97;;;1.90;;
11763;SDS011;5939;56.522;14.950;2024-01-07T04:12:41;2.97;;;2.17;;
11763;SDS011;5939;56.522;14.950;2024-01-07T04:15:07;2.63;;;1.90;;
11763;SDS011;5939;56.522;14.950;2024-01-07T04:17:33;2.67;;;1.97;;
11763;SDS011;5939;56.522;14.950;2024-01-07T04:19:59;3.00;;;2.00;;
11763;SDS011;5939;56.522;14.950;2024-01-07T04:22:24;2.70;;;1.93;;
11763;SDS011;5939;56.522;14.950;2024-01-07T04:24:50;2.33;;;1.80;;
11763;SDS011;5939;56.522;14.950;2024-01-07T04:27:15;2.50;;;2.00;;
11763;SDS011;5939;56.522;14.950;2024-01-07T04:29:41;2.57;;;2.07;;
11763;SDS011;5939;56.522;14.950;2024-01-07T04:32:06;3.47;;;2.43;;
11763;SDS011;5939;56.522;14.950;2024-01-07T04:34:32;3.07;;;2.30;;
11763;SDS011;5939;56.522;14.950;2024-01-07T04:36:58;3.43;;;2.20;;
11763;SDS011;5939;56.522;14.950;2024-01-07T04:39:23;2.27;;;1.97;;
11763;SDS011;5939;56.522;14.950;2024-01-07T04:41:49;2.90;;;2.10;;
11763;SDS011;5939;56.522;14.950;2024-01-07T04:44:14;2.50;;;2.00;;
11763;SDS011;5939;56.522;14.950;2024-01-07T04:46:40;3.87;;;2.17;;
11763;SDS011;5939;56.522;14.950;2024-01-07T04:49:06;3.50;;;2.00;;
11763;SDS011;5939;56.522;14.950;2024-01-07T04:51:32;2.73;;;2.13;;
11763;SDS011;5939;56.522;14.950;2024-01-07T04:53:58;4.17;;;2.40;;
11763;SDS011;5939;56.522;14.950;2024-01-07T04:56:23;3.50;;;2.20;;
11763;SDS011;5939;56.522;14.950;2024-01-07T04:58:49;3.03;;;2.13;;
11763;SDS011;5939;56.522;14.950;2024-01-07T05:01:15;3.07;;;2.17;;
11763;SDS011;5939;56.522;14.950;2024-01-07T05:03:41;2.67;;;2.20;;
11763;SDS011;5939;56.522;14.950;2024-01-07T05:06:09;3.10;;;2.20;;
11763;SDS011;5939;56.522;14.950;2024-01-07T05:08:36;2.67;;;2.00;;
11763;SDS011;5939;56.522;14.950;2024-01-07T05:11:02;3.20;;;2.50;;
11763;SDS011;5939;56.522;14.950;2024-01-07T05:13:28;3.43;;;2.33;;
11763;SDS011;5939;56.522;14.950;2024-01-07T05:15:54;2.60;;;2.10;;
11763;SDS011;5939;56.522;14.950;2024-01-07T05:18:21;3.27;;;2.40;;
11763;SDS011;5939;56.522;14.950;2024-01-07T05:20:47;2.80;;;2.00;;
11763;SDS011;5939;56.522;14.950;2024-01-07T05:23:13;3.13;;;1.77;;
11763;SDS011;5939;56.522;14.950;2024-01-07T05:25:39;2.40;;;2.10;;
11763;SDS011;5939;56.522;14.950;2024-01-07T05:28:05;4.57;;;2.30;;
11763;SDS011;5939;56.522;14.950;2024-01-07T05:30:31;2.53;;;2.00;;
11763;SDS011;5939;56.522;14.950;2024-01-07T05:32:57;3.57;;;2.30;;
11763;SDS011;5939;56.522;14.950;2024-01-07T05:35:22;2.83;;;2.10;;
11763;SDS011;5939;56.522;14.950;2024-01-07T05:37:48;2.77;;;1.97;;
11763;SDS011;5939;56.522;14.950;2024-01-07T05:40:14;4.57;;;2.40;;
11763;SDS011;5939;56.522;14.950;2024-01-07T05:42:39;2.90;;;2.03;;
11763;SDS011;5939;56.522;14.950;2024-01-07T05:45:05;3.47;;;2.10;;
11763;SDS011;5939;56.522;14.950;2024-01-07T05:47:31;3.33;;;2.00;;
11763;SDS011;5939;56.522;14.950;2024-01-07T05:49:57;3.40;;;2.50;;
11763;SDS011;5939;56.522;14.950;2024-01-07T05:52:23;3.77;;;2.30;;
11763;SDS011;5939;56.522;14.950;2024-01-07T05:54:49;3.33;;;2.37;;
11763;SDS011;5939;56.522;14.950;2024-01-07T05:57:14;3.30;;;2.50;;
11763;SDS011;5939;56.522;14.950;2024-01-07T05:59:40;3.07;;;2.40;;
11763;SDS011;5939;56.522;14.950;2024-01-07T06:02:06;4.77;;;2.70;;
11763;SDS011;5939;56.522;14.950;2024-01-07T06:04:31;4.10;;;2.63;;
11763;SDS011;5939;56.522;14.950;2024-01-07T06:06:57;3.37;;;2.40;;
11763;SDS011;5939;56.522;14.950;2024-01-07T06:09:23;2.97;;;2.30;;
11763;SDS011;5939;56.522;14.950;2024-01-07T06:11:50;3.20;;;2.20;;
11763;SDS011;5939;56.522;14.950;2024-01-07T06:14:15;2.40;;;1.93;;
11763;SDS011;5939;56.522;14.950;2024-01-07T06:16:41;2.60;;;2.20;;
11763;SDS011;5939;56.522;14.950;2024-01-07T06:19:07;3.30;;;2.20;;
11763;SDS011;5939;56.522;14.950;2024-01-07T06:21:33;3.03;;;2.30;;
11763;SDS011;5939;56.522;14.950;2024-01-07T06:23:58;4.27;;;2.33;;
11763;SDS011;5939;56.522;14.950;2024-01-07T06:26:24;3.27;;;2.37;;
11763;SDS011;5939;56.522;14.950;2024-01-07T06:28:50;3.23;;;2.20;;
11763;SDS011;5939;56.522;14.950;2024-01-07T06:31:15;3.37;;;2.33;;
11763;SDS011;5939;56.522;14.950;2024-01-07T06:33:41;3.50;;;2.13;;
11763;SDS011;5939;56.522;14.950;2024-01-07T06:36:07;2.77;;;2.13;;
11763;SDS011;5939;56.522;14.950;2024-01-07T06:38:33;3.07;;;2.30;;
11763;SDS011;5939;56.522;14.950;2024-01-07T06:40:59;2.23;;;2.00;;
11763;SDS011;5939;56.522;14.950;2024-01-07T06:43:29;3.57;;;2.07;;
11763;SDS011;5939;56.522;14.950;2024-01-07T06:45:54;2.87;;;2.23;;
11763;SDS011;5939;56.522;14.950;2024-01-07T06:48:20;2.83;;;2.50;;
11763;SDS011;5939;56.522;14.950;2024-01-07T06:50:46;3.53;;;2.50;;
11763;SDS011;5939;56.522;14.950;2024-01-07T06:53:12;4.60;;;2.43;;
11763;SDS011;5939;56.522;14.950;2024-01-07T06:55:37;3.67;;;2.27;;
11763;SDS011;5939;56.522;14.950;2024-01-07T06:58:03;3.40;;;2.67;;
11763;SDS011;5939;56.522;14.950;2024-01-07T07:00:29;3.37;;;2.20;;
11763;SDS011;5939;56.522;14.950;2024-01-07T07:02:54;3.73;;;2.40;;
11763;SDS011;5939;56.522;14.950;2024-01-07T07:05:20;3.37;;;2.53;;
11763;SDS011;5939;56.522;14.950;2024-01-07T07:07:45;3.30;;;2.43;;
11763;SDS011;5939;56.522;14.950;2024-01-07T07:10:11;5.60;;;2.50;;
11763;SDS011;5939;56.522;14.950;2024-01-07T07:12:37;3.73;;;2.53;;
11763;SDS011;5939;56.522;14.950;2024-01-07T07:15:02;3.60;;;2.80;;
11763;SDS011;5939;56.522;14.950;2024-01-07T07:17:28;4.13;;;2.40;;
11763;SDS011;5939;56.522;14.950;2024-01-07T07:19:54;3.60;;;2.50;;
11763;SDS011;5939;56.522;14.950;2024-01-07T07:22:19;4.17;;;2.70;;
11763;SDS011;5939;56.522;14.950;2024-01-07T07:24:45;5.93;;;2.43;;
11763;SDS011;5939;56.522;14.950;2024-01-07T07:27:11;3.43;;;2.50;;
11763;SDS011;5939;56.522;14.950;2024-01-07T07:29:36;4.13;;;2.30;;
11763;SDS011;5939;56.522;14.950;2024-01-07T07:32:02;4.77;;;2.40;;
11763;SDS011;5939;56.522;14.950;2024-01-07T07:34:28;3.77;;;2.50;;
11763;SDS011;5939;56.522;14.950;2024-01-07T07:36:53;3.73;;;2.70;;
11763;SDS011;5939;56.522;14.950;2024-01-07T07:39:20;4.87;;;2.60;;
11763;SDS011;5939;56.522;14.950;2024-01-07T07:41:46;4.80;;;3.30;;
11763;SDS011;5939;56.522;14.950;2024-01-07T07:44:13;6.37;;;3.37;;
11763;SDS011;5939;56.522;14.950;2024-01-07T07:46:38;7.10;;;3.63;;
11763;SDS011;5939;56.522;14.950;2024-01-07T07:49:04;6.10;;;3.57;;
11763;SDS011;5939;56.522;14.950;2024-01-07T07:51:30;5.00;;;3.13;;
11763;SDS011;5939;56.522;14.950;2024-01-07T07:53:56;4.27;;;2.93;;
11763;SDS011;5939;56.522;14.950;2024-01-07T07:56:22;4.90;;;3.10;;
11763;SDS011;5939;56.522;14.950;2024-01-07T07:58:47;6.10;;;3.40;;
11763;SDS011;5939;56.522;14.950;2024-01-07T08:01:13;6.47;;;3.63;;
11763;SDS011;5939;56.522;14.950;2024-01-07T08:03:39;4.50;;;3.40;;
11763;SDS011;5939;56.522;14.950;2024-01-07T08:06:05;5.87;;;3.23;;
11763;SDS011;5939;56.522;14.950;2024-01-07T08:08:31;5.77;;;3.53;;
11763;SDS011;5939;56.522;14.950;2024-01-07T08:10:57;5.67;;;3.50;;
11763;SDS011;5939;56.522;14.950;2024-01-07T08:13:22;3.83;;;3.00;;
11763;SDS011;5939;56.522;14.950;2024-01-07T08:15:48;4.50;;;3.17;;
11763;SDS011;5939;56.522;14.950;2024-01-07T08:18:14;5.37;;;3.20;;
11763;SDS011;5939;56.522;14.950;2024-01-07T08:20:39;5.13;;;3.40;;
11763;SDS011;5939;56.522;14.950;2024-01-07T08:23:05;3.57;;;2.70;;
11763;SDS011;5939;56.522;14.950;2024-01-07T08:25:31;4.77;;;3.20;;
11763;SDS011;5939;56.522;14.950;2024-01-07T08:27:57;5.73;;;3.37;;
11763;SDS011;5939;56.522;14.950;2024-01-07T08:30:22;4.73;;;2.93;;
11763;SDS011;5939;56.522;14.950;2024-01-07T08:32:48;5.37;;;3.00;;
11763;SDS011;5939;56.522;14.950;2024-01-07T08:35:14;4.00;;;3.03;;
11763;SDS011;5939;56.522;14.950;2024-01-07T08:37:40;4.97;;;3.03;;
11763;SDS011;5939;56.522;14.950;2024-01-07T08:40:05;4.47;;;2.90;;
11763;SDS011;5939;56.522;14.950;2024-01-07T08:42:34;5.67;;;3.00;;
11763;SDS011;5939;56.522;14.950;2024-01-07T08:45:00;5.60;;;3.30;;
11763;SDS011;5939;56.522;14.950;2024-01-07T08:47:29;5.33;;;3.07;;
11763;SDS011;5939;56.522;14.950;2024-01-07T08:49:56;4.83;;;3.30;;
11763;SDS011;5939;56.522;14.950;2024-01-07T08:52:22;6.13;;;3.23;;
11763;SDS011;5939;56.522;14.950;2024-01-07T08:54:48;4.43;;;3.33;;
11763;SDS011;5939;56.522;14.950;2024-01-07T08:57:14;5.83;;;2.90;;
11763;SDS011;5939;56.522;14.950;2024-01-07T08:59:40;4.90;;;3.20;;
11763;SDS011;5939;56.522;14.950;2024-01-07T09:02:05;7.40;;;3.50;;
11763;SDS011;5939;56.522;14.950;2024-01-07T09:04:31;4.57;;;2.93;;
11763;SDS011;5939;56.522;14.950;2024-01-07T09:06:58;3.77;;;3.00;;
11763;SDS011;5939;56.522;14.950;2024-01-07T09:09:24;5.07;;;3.40;;
11763;SDS011;5939;56.522;14.950;2024-01-07T09:11:49;5.80;;;3.47;;
11763;SDS011;5939;56.522;14.950;2024-01-07T09:14:17;5.47;;;3.33;;
11763;SDS011;5939;56.522;14.950;2024-01-07T09:16:42;4.17;;;3.07;;
11763;SDS011;5939;56.522;14.950;2024-01-07T09:19:08;5.90;;;3.83;;
11763;SDS011;5939;56.522;14.950;2024-01-07T09:21:34;5.07;;;3.30;;
11763;SDS011;5939;56.522;14.950;2024-01-07T09:23:59;5.07;;;3.10;;
11763;SDS011;5939;56.522;14.950;2024-01-07T09:26:25;4.20;;;3.00;;
11763;SDS011;5939;56.522;14.950;2024-01-07T09:28:50;4.77;;;3.10;;
11763;SDS011;5939;56.522;14.950;2024-01-07T09:31:17;5.97;;;3.30;;
11763;SDS011;5939;56.522;14.950;2024-01-07T09:33:42;5.07;;;3.50;;
11763;SDS011;5939;56.522;14.950;2024-01-07T09:36:08;4.90;;;3.20;;
11763;SDS011;5939;56.522;14.950;2024-01-07T09:38:34;4.20;;;2.90;;
11763;SDS011;5939;56.522;14.950;2024-01-07T09:40:59;5.27;;;3.40;;
11763;SDS011;5939;56.522;14.950;2024-01-07T09:43:25;4.87;;;3.47;;
11763;SDS011;5939;56.522;14.950;2024-01-07T09:45:50;5.07;;;2.87;;
11763;SDS011;5939;56.522;14.950;2024-01-07T09:48:18;4.00;;;2.80;;
11763;SDS011;5939;56.522;14.950;2024-01-07T09:50:44;5.30;;;3.27;;
11763;SDS011;5939;56.522;14.950;2024-01-07T09:53:11;6.10;;;3.27;;
11763;SDS011;5939;56.522;14.950;2024-01-07T09:56:12;4.53;;;2.83;;
11763;SDS011;5939;56.522;14.950;2024-01-07T09:58:44;5.53;;;2.83;;
11763;SDS011;5939;56.522;14.950;2024-01-07T10:01:10;3.60;;;2.83;;
11763;SDS011;5939;56.522;14.950;2024-01-07T10:03:37;7.30;;;3.00;;
11763;SDS011;5939;56.522;14.950;2024-01-07T10:06:02;5.73;;;3.57;;
11763;SDS011;5939;56.522;14.950;2024-01-07T10:08:28;4.40;;;2.80;;
11763;SDS011;5939;56.522;14.950;2024-01-07T10:10:54;6.60;;;3.80;;
11763;SDS011;5939;56.522;14.950;2024-01-07T10:13:20;3.90;;;2.90;;
11763;SDS011;5939;56.522;14.950;2024-01-07T10:15:47;9.60;;;3.90;;
11763;SDS011;5939;56.522;14.950;2024-01-07T10:18:13;4.93;;;3.07;;
11763;SDS011;5939;56.522;14.950;2024-01-07T10:20:39;6.30;;;3.00;;
11763;SDS011;5939;56.522;14.950;2024-01-07T10:23:05;3.93;;;2.47;;
11763;SDS011;5939;56.522;14.950;2024-01-07T10:25:33;4.90;;;3.00;;
11763;SDS011;5939;56.522;14.950;2024-01-07T10:28:02;3.10;;;2.80;;
11763;SDS011;5939;56.522;14.950;2024-01-07T10:30:28;5.13;;;3.50;;
11763;SDS011;5939;56.522;14.950;2024-01-07T10:32:57;4.27;;;2.90;;
11763;SDS011;5939;56.522;14.950;2024-01-07T10:35:34;4.20;;;3.47;;
11763;SDS011;5939;56.522;14.950;2024-01-07T10:38:00;8.80;;;6.47;;
11763;SDS011;5939;56.522;14.950;2024-01-07T10:40:27;7.33;;;4.50;;
11763;SDS011;5939;56.522;14.950;2024-01-07T10:42:54;8.60;;;5.03;;
11763;SDS011;5939;56.522;14.950;2024-01-07T10:45:21;18.47;;;10.00;;
11763;SDS011;5939;56.522;14.950;2024-01-07T10:47:48;17.40;;;10.20;;
11763;SDS011;5939;56.522;14.950;2024-01-07T10:50:16;15.17;;;9.83;;
11763;SDS011;5939;56.522;14.950;2024-01-07T10:52:43;16.23;;;11.50;;
11763;SDS011;5939;56.522;14.950;2024-01-07T10:55:22;16.03;;;9.00;;
11763;SDS011;5939;56.522;14.950;2024-01-07T10:57:51;12.57;;;8.20;;
11763;SDS011;5939;56.522;14.950;2024-01-07T11:00:19;12.67;;;7.57;;
11763;SDS011;5939;56.522;14.950;2024-01-07T11:05:44;12.73;;;7.90;;
11763;SDS011;5939;56.522;14.950;2024-01-07T11:08:27;10.40;;;7.03;;
11763;SDS011;5939;56.522;14.950;2024-01-07T11:11:03;10.87;;;6.77;;
11763;SDS011;5939;56.522;14.950;2024-01-07T11:13:33;11.27;;;7.03;;
11763;SDS011;5939;56.522;14.950;2024-01-07T11:16:00;10.40;;;6.90;;
11763;SDS011;5939;56.522;14.950;2024-01-07T11:18:39;7.80;;;5.70;;
11763;SDS011;5939;56.522;14.950;2024-01-07T11:21:10;8.10;;;6.27;;
11763;SDS011;5939;56.522;14.950;2024-01-07T11:23:45;9.43;;;5.60;;
11763;SDS011;5939;56.522;14.950;2024-01-07T11:26:11;7.77;;;5.30;;
11763;SDS011;5939;56.522;14.950;2024-01-07T11:31:42;8.00;;;5.20;;
11763;SDS011;5939;56.522;14.950;2024-01-07T11:34:08;10.07;;;5.83;;
11763;SDS011;5939;56.522;14.950;2024-01-07T11:36:37;9.13;;;5.20;;
11763;SDS011;5939;56.522;14.950;2024-01-07T11:39:04;6.80;;;4.93;;
11763;SDS011;5939;56.522;14.950;2024-01-07T11:41:33;7.00;;;4.53;;
11763;SDS011;5939;56.522;14.950;2024-01-07T11:44:00;6.50;;;4.87;;
11763;SDS011;5939;56.522;14.950;2024-01-07T11:46:29;8.40;;;5.10;;
11763;SDS011;5939;56.522;14.950;2024-01-07T11:48:59;5.97;;;4.53;;
11763;SDS011;5939;56.522;14.950;2024-01-07T11:51:25;6.43;;;4.27;;
11763;SDS011;5939;56.522;14.950;2024-01-07T11:54:00;7.73;;;4.37;;
11763;SDS011;5939;56.522;14.950;2024-01-07T11:56:26;6.47;;;4.23;;
11763;SDS011;5939;56.522;14.950;2024-01-07T11:58:52;5.63;;;4.47;;
11763;SDS011;5939;56.522;14.950;2024-01-07T12:01:18;6.33;;;4.40;;
11763;SDS011;5939;56.522;14.950;2024-01-07T12:03:45;8.03;;;4.40;;
11763;SDS011;5939;56.522;14.950;2024-01-07T12:06:11;6.83;;;3.97;;
11763;SDS011;5939;56.522;14.950;2024-01-07T12:08:39;6.00;;;4.27;;
11763;SDS011;5939;56.522;14.950;2024-01-07T12:11:08;6.47;;;4.67;;
11763;SDS011;5939;56.522;14.950;2024-01-07T12:13:36;6.73;;;3.40;;
11763;SDS011;5939;56.522;14.950;2024-01-07T12:16:02;5.50;;;3.80;;
11763;SDS011;5939;56.522;14.950;2024-01-07T12:18:29;4.47;;;3.57;;
11763;SDS011;5939;56.522;14.950;2024-01-07T12:20:58;6.37;;;3.30;;
11763;SDS011;5939;56.522;14.950;2024-01-07T12:23:25;5.30;;;3.67;;
11763;SDS011;5939;56.522;14.950;2024-01-07T12:25:54;4.43;;;3.60;;
11763;SDS011;5939;56.522;14.950;2024-01-07T12:28:31;4.80;;;3.27;;
11763;SDS011;5939;56.522;14.950;2024-01-07T12:30:58;6.60;;;3.57;;
11763;SDS011;5939;56.522;14.950;2024-01-07T12:33:26;6.30;;;4.07;;
11763;SDS011;5939;56.522;14.950;2024-01-07T12:35:52;6.07;;;4.00;;
11763;SDS011;5939;56.522;14.950;2024-01-07T12:38:23;6.07;;;3.90;;
11763;SDS011;5939;56.522;14.950;2024-01-07T12:40:49;7.23;;;3.70;;
11763;SDS011;5939;56.522;14.950;2024-01-07T12:43:15;8.00;;;4.07;;
11763;SDS011;5939;56.522;14.950;2024-01-07T12:45:41;10.43;;;5.40;;
11763;SDS011;5939;56.522;14.950;2024-01-07T12:48:07;6.83;;;4.63;;
11763;SDS011;5939;56.522;14.950;2024-01-07T12:50:32;6.87;;;4.43;;
11763;SDS011;5939;56.522;14.950;2024-01-07T12:52:58;6.77;;;4.90;;
11763;SDS011;5939;56.522;14.950;2024-01-07T12:55:24;5.70;;;4.30;;
11763;SDS011;5939;56.522;14.950;2024-01-07T12:57:50;5.90;;;3.80;;
11763;SDS011;5939;56.522;14.950;2024-01-07T13:00:16;7.30;;;4.83;;
11763;SDS011;5939;56.522;14.950;2024-01-07T13:02:42;7.07;;;4.83;;
11763;SDS011;5939;56.522;14.950;2024-01-07T13:05:08;8.73;;;4.47;;
11763;SDS011;5939;56.522;14.950;2024-01-07T13:07:34;7.03;;;4.70;;
11763;SDS011;5939;56.522;14.950;2024-01-07T13:10:00;8.37;;;4.20;;
11763;SDS011;5939;56.522;14.950;2024-01-07T13:12:26;6.23;;;4.33;;
11763;SDS011;5939;56.522;14.950;2024-01-07T13:14:52;4.57;;;3.40;;
11763;SDS011;5939;56.522;14.950;2024-01-07T13:17:18;5.50;;;3.93;;
11763;SDS011;5939;56.522;14.950;2024-01-07T13:19:43;4.90;;;3.57;;
11763;SDS011;5939;56.522;14.950;2024-01-07T13:22:09;4.53;;;3.60;;
11763;SDS011;5939;56.522;14.950;2024-01-07T13:24:35;5.57;;;3.63;;
11763;SDS011;5939;56.522;14.950;2024-01-07T13:27:01;4.40;;;3.23;;
11763;SDS011;5939;56.522;14.950;2024-01-07T13:29:27;4.27;;;3.23;;
11763;SDS011;5939;56.522;14.950;2024-01-07T13:31:53;3.27;;;2.67;;
11763;SDS011;5939;56.522;14.950;2024-01-07T13:34:18;4.33;;;3.20;;
11763;SDS011;5939;56.522;14.950;2024-01-07T13:36:44;3.90;;;3.00;;
11763;SDS011;5939;56.522;14.950;2024-01-07T13:39:10;4.00;;;2.97;;
11763;SDS011;5939;56.522;14.950;2024-01-07T13:41:35;3.07;;;2.53;;
11763;SDS011;5939;56.522;14.950;2024-01-07T13:44:02;5.17;;;2.53;;
11763;SDS011;5939;56.522;14.950;2024-01-07T13:46:32;3.10;;;2.70;;
11763;SDS011;5939;56.522;14.950;2024-01-07T13:48:57;4.17;;;2.97;;
11763;SDS011;5939;56.522;14.950;2024-01-07T13:51:24;3.50;;;2.43;;
11763;SDS011;5939;56.522;14.950;2024-01-07T13:53:51;2.67;;;2.33;;
11763;SDS011;5939;56.522;14.950;2024-01-07T13:56:17;3.37;;;2.30;;
11763;SDS011;5939;56.522;14.950;2024-01-07T13:58:42;3.83;;;2.43;;
11763;SDS011;5939;56.522;14.950;2024-01-07T14:01:11;4.57;;;2.83;;
11763;SDS011;5939;56.522;14.950;2024-01-07T14:03:37;4.07;;;2.60;;
11763;SDS011;5939;56.522;14.950;2024-01-07T14:06:03;2.93;;;2.27;;
11763;SDS011;5939;56.522;14.950;2024-01-07T14:08:29;2.63;;;2.07;;
11763;SDS011;5939;56.522;14.950;2024-01-07T14:10:54;2.83;;;2.03;;
11763;SDS011;5939;56.522;14.950;2024-01-07T14:13:20;2.73;;;2.10;;
11763;SDS011;5939;56.522;14.950;2024-01-07T14:15:45;2.63;;;2.30;;
11763;SDS011;5939;56.522;14.950;2024-01-07T14:18:11;2.60;;;2.07;;
11763;SDS011;5939;56.522;14.950;2024-01-07T14:20:40;4.10;;;2.20;;
11763;SDS011;5939;56.522;14.950;2024-01-07T14:23:07;2.77;;;2.20;;
11763;SDS011;5939;56.522;14.950;2024-01-07T14:25:33;2.10;;;1.90;;
11763;SDS011;5939;56.522;14.950;2024-01-07T14:27:58;3.80;;;2.03;;
11763;SDS011;5939;56.522;14.950;2024-01-07T14:30:24;3.23;;;2.27;;
11763;SDS011;5939;56.522;14.950;2024-01-07T14:32:49;2.77;;;2.00;;
11763;SDS011;5939;56.522;14.950;2024-01-07T14:35:15;3.10;;;2.10;;
11763;SDS011;5939;56.522;14.950;2024-01-07T14:37:41;3.63;;;2.00;;
11763;SDS011;5939;56.522;14.950;2024-01-07T14:40:07;2.77;;;1.70;;
11763;SDS011;5939;56.522;14.950;2024-01-07T14:42:33;2.33;;;2.00;;
11763;SDS011;5939;56.522;14.950;2024-01-07T14:44:59;2.17;;;1.93;;
11763;SDS011;5939;56.522;14.950;2024-01-07T14:47:24;2.00;;;1.80;;
11763;SDS011;5939;56.522;14.950;2024-01-07T14:49:50;3.70;;;1.83;;